createdAt,value
2018-09-09T00:00:41.646Z,23.20
2018-09-09T00:03:11.590Z,23.20
2018-09-09T00:05:41.121Z,23.20
2018-09-09T00:08:10.185Z,23.20
2018-09-09T00:10:39.375Z,23.20
2018-09-09T00:13:08.966Z,23.20
2018-09-09T00:15:38.976Z,23.20
2018-09-09T00:18:08.030Z,23.30
2018-09-09T00:20:37.878Z,23.30
2018-09-09T00:23:06.968Z,23.30
2018-09-09T00:25:36.686Z,23.30
2018-09-09T00:28:05.845Z,23.20
2018-09-09T00:30:35.120Z,23.20
2018-09-09T00:33:04.800Z,23.20
2018-09-09T00:35:34.602Z,23.20
2018-09-09T00:38:03.636Z,23.20
2018-09-09T00:40:33.178Z,23.20
2018-09-09T00:43:03.052Z,23.20
2018-09-09T00:45:32.483Z,23.30
2018-09-09T00:48:02.133Z,23.20
2018-09-09T00:50:36.507Z,23.20
2018-09-09T00:53:12.910Z,23.20
2018-09-09T00:55:41.967Z,23.20
2018-09-09T00:58:11.069Z,23.20
2018-09-09T01:00:45.490Z,23.20
2018-09-09T01:03:15.129Z,23.20
2018-09-09T01:05:44.798Z,23.20
2018-09-09T01:08:13.841Z,23.20
2018-09-09T01:10:43.957Z,23.20
2018-09-09T01:13:13.009Z,23.20
2018-09-09T01:15:42.054Z,23.20
2018-09-09T01:18:11.141Z,23.20
2018-09-09T01:20:40.906Z,23.20
2018-09-09T01:23:14.137Z,23.20
2018-09-09T01:25:43.819Z,23.20
2018-09-09T01:28:12.894Z,23.20
2018-09-09T01:30:42.753Z,23.20
2018-09-09T01:33:12.422Z,23.20
2018-09-09T01:35:41.949Z,23.20
2018-09-09T01:38:10.991Z,23.20
2018-09-09T01:40:40.029Z,23.20
2018-09-09T01:43:09.945Z,23.20
2018-09-09T01:45:39.650Z,23.20
2018-09-09T01:48:08.698Z,23.20
2018-09-09T01:50:39.206Z,23.20
2018-09-09T01:53:08.268Z,23.20
2018-09-09T01:55:37.301Z,23.20
2018-09-09T01:58:07.266Z,23.20
2018-09-09T02:00:36.306Z,23.20
2018-09-09T02:03:06.333Z,23.20
2018-09-09T02:05:36.060Z,23.20
2018-09-09T02:08:05.141Z,23.20
2018-09-09T02:10:34.695Z,23.20
2018-09-09T02:13:04.592Z,23.20
2018-09-09T02:15:33.650Z,23.20
2018-09-09T02:18:02.683Z,23.20
2018-09-09T02:20:32.293Z,23.20
2018-09-09T02:23:01.342Z,23.10
2018-09-09T02:25:31.014Z,23.20
2018-09-09T02:28:00.989Z,23.10
2018-09-09T02:30:30.686Z,23.10
2018-09-09T02:32:59.734Z,23.10
2018-09-09T02:35:29.601Z,23.10
2018-09-09T02:37:58.667Z,23.10
2018-09-09T02:40:28.122Z,23.10
2018-09-09T02:42:58.071Z,23.10
2018-09-09T02:45:28.225Z,23.10
2018-09-09T02:47:57.893Z,23.10
2018-09-09T02:50:26.939Z,23.10
2018-09-09T02:52:55.982Z,23.10
2018-09-09T02:55:25.045Z,23.10
2018-09-09T02:57:54.123Z,23.10
2018-09-09T03:00:23.238Z,23.10
2018-09-09T03:02:52.653Z,23.10
2018-09-09T03:05:22.925Z,23.10
2018-09-09T03:07:52.549Z,23.10
2018-09-09T03:10:21.610Z,23.10
2018-09-09T03:12:50.683Z,23.10
2018-09-09T03:15:19.735Z,23.10
2018-09-09T03:17:49.926Z,23.00
2018-09-09T03:20:20.374Z,23.10
2018-09-09T03:22:50.482Z,23.10
2018-09-09T03:25:20.363Z,23.00
2018-09-09T03:27:50.066Z,23.00
2018-09-09T03:30:19.143Z,23.00
2018-09-09T03:32:48.210Z,23.00
2018-09-09T03:35:17.877Z,23.00
2018-09-09T03:37:46.925Z,23.00
2018-09-09T03:40:16.524Z,23.00
2018-09-09T03:42:46.490Z,23.00
2018-09-09T03:45:16.130Z,23.00
2018-09-09T03:47:45.191Z,23.00
2018-09-09T03:50:14.263Z,23.00
2018-09-09T03:52:43.525Z,23.00
2018-09-09T03:55:12.639Z,23.00
2018-09-09T03:57:41.756Z,23.00
2018-09-09T04:00:10.825Z,23.00
2018-09-09T04:02:40.926Z,23.00
2018-09-09T04:05:10.482Z,23.00
2018-09-09T04:07:40.881Z,23.00
2018-09-09T04:10:09.955Z,23.00
2018-09-09T04:12:39.322Z,23.00
2018-09-09T04:15:08.415Z,23.00
2018-09-09T04:17:37.446Z,23.00
2018-09-09T04:20:07.673Z,23.00
2018-09-09T04:22:37.389Z,23.00
2018-09-09T04:25:07.318Z,23.00
2018-09-09T04:27:36.387Z,23.00
2018-09-09T04:30:06.048Z,23.00
2018-09-09T04:32:35.129Z,22.90
2018-09-09T04:35:04.902Z,23.00
2018-09-09T04:37:35.239Z,22.90
2018-09-09T04:40:05.167Z,22.90
2018-09-09T04:42:34.825Z,22.90
2018-09-09T04:45:04.551Z,22.90
2018-09-09T04:47:33.601Z,22.90
2018-09-09T04:50:02.946Z,22.90
2018-09-09T04:52:31.993Z,22.90
2018-09-09T04:55:01.045Z,22.90
2018-09-09T04:57:30.797Z,22.90
2018-09-09T04:59:59.855Z,22.90
2018-09-09T05:02:29.445Z,22.90
2018-09-09T05:04:59.283Z,22.90
2018-09-09T05:07:28.337Z,22.90
2018-09-09T05:09:57.433Z,22.90
2018-09-09T05:12:26.633Z,22.90
2018-09-09T05:14:55.676Z,22.90
2018-09-09T05:17:24.793Z,22.90
2018-09-09T05:19:54.762Z,22.90
2018-09-09T05:22:24.240Z,22.90
2018-09-09T05:24:54.135Z,22.90
2018-09-09T05:27:23.178Z,22.80
2018-09-09T05:29:52.238Z,22.90
2018-09-09T05:32:21.306Z,22.90
2018-09-09T05:34:50.961Z,22.80
2018-09-09T05:37:20.674Z,22.80
2018-09-09T05:39:49.770Z,22.90
2018-09-09T05:42:20.074Z,22.80
2018-09-09T05:44:49.755Z,22.80
2018-09-09T05:47:18.730Z,22.70
2018-09-09T05:49:47.835Z,22.70
2018-09-09T05:52:17.346Z,22.70
2018-09-09T05:54:46.901Z,22.70
2018-09-09T05:57:15.950Z,22.80
2018-09-09T05:59:46.499Z,22.70
2018-09-09T06:02:15.913Z,22.70
2018-09-09T06:04:45.970Z,22.70
2018-09-09T06:07:15.037Z,22.70
2018-09-09T06:09:44.423Z,22.70
2018-09-09T06:12:13.489Z,22.70
2018-09-09T06:14:42.534Z,22.60
2018-09-09T06:17:12.255Z,22.60
2018-09-09T06:19:41.982Z,22.60
2018-09-09T06:22:11.039Z,22.60
2018-09-09T06:24:41.010Z,22.60
2018-09-09T06:27:10.366Z,22.60
2018-09-09T06:29:39.970Z,22.60
2018-09-09T06:32:09.956Z,22.60
2018-09-09T06:34:39.533Z,22.60
2018-09-09T06:37:09.019Z,22.60
2018-09-09T06:39:38.086Z,22.60
2018-09-09T06:42:08.624Z,22.50
2018-09-09T06:44:39.237Z,22.60
2018-09-09T06:47:08.370Z,22.50
2018-09-09T06:49:37.440Z,22.50
2018-09-09T06:52:07.393Z,22.50
2018-09-09T06:54:36.474Z,22.50
2018-09-09T06:57:05.809Z,22.50
2018-09-09T06:59:34.896Z,22.50
2018-09-09T07:02:04.289Z,22.40
2018-09-09T07:04:34.394Z,22.40
2018-09-09T07:07:03.474Z,22.40
2018-09-09T07:09:33.609Z,22.30
2018-09-09T07:12:03.122Z,22.30
2018-09-09T07:14:34.541Z,22.40
2018-09-09T07:17:04.408Z,22.40
2018-09-09T07:19:33.809Z,22.40
2018-09-09T07:22:03.335Z,22.40
2018-09-09T07:24:33.257Z,22.40
2018-09-09T07:27:02.815Z,22.40
2018-09-09T07:29:32.272Z,22.40
2018-09-09T07:32:01.330Z,22.40
2018-09-09T07:34:30.390Z,22.40
2018-09-09T07:37:00.319Z,22.50
2018-09-09T07:39:29.439Z,22.40
2018-09-09T07:41:58.805Z,22.40
2018-09-09T07:44:28.181Z,22.30
2018-09-09T07:46:58.314Z,22.30
2018-09-09T07:49:27.367Z,22.40
2018-09-09T07:51:56.443Z,22.40
2018-09-09T07:54:25.538Z,22.40
2018-09-09T07:56:54.645Z,22.50
2018-09-09T07:59:23.800Z,22.50
2018-09-09T08:01:53.734Z,22.50
2018-09-09T08:04:22.786Z,22.40
2018-09-09T08:06:52.416Z,22.40
2018-09-09T08:09:21.787Z,22.40
2018-09-09T08:11:50.825Z,22.30
2018-09-09T08:14:20.844Z,22.40
2018-09-09T08:16:50.410Z,22.40
2018-09-09T08:19:19.746Z,22.40
2018-09-09T08:21:49.550Z,22.50
2018-09-09T08:24:19.545Z,22.50
2018-09-09T08:26:49.647Z,22.60
2018-09-09T08:29:19.074Z,22.60
2018-09-09T08:31:48.126Z,22.60
2018-09-09T08:34:17.198Z,22.70
2018-09-09T08:36:46.585Z,22.70
2018-09-09T08:39:15.650Z,22.70
2018-09-09T08:41:46.211Z,22.70
2018-09-09T08:44:15.813Z,22.70
2018-09-09T08:46:45.391Z,22.70
2018-09-09T08:49:14.467Z,22.70
2018-09-09T08:51:43.568Z,22.70
2018-09-09T08:54:12.590Z,22.80
2018-09-09T08:56:41.636Z,22.80
2018-09-09T08:59:11.435Z,22.80
2018-09-09T09:01:41.103Z,22.80
2018-09-09T09:04:10.554Z,22.80
2018-09-09T09:06:40.130Z,22.90
2018-09-09T09:09:11.156Z,22.90
2018-09-09T09:11:41.038Z,22.90
2018-09-09T09:14:10.091Z,22.90
2018-09-09T09:16:40.198Z,22.90
2018-09-09T09:19:09.816Z,22.90
2018-09-09T09:21:40.205Z,22.90
2018-09-09T09:24:09.307Z,22.90
2018-09-09T09:26:39.138Z,23.00
2018-09-09T09:29:08.743Z,23.00
2018-09-09T09:31:38.045Z,23.00
2018-09-09T09:34:08.846Z,23.00
2018-09-09T09:36:38.275Z,23.00
2018-09-09T09:39:08.147Z,23.00
2018-09-09T09:41:38.257Z,23.00
2018-09-09T09:44:08.006Z,23.00
2018-09-09T09:46:37.071Z,23.00
2018-09-09T09:49:06.530Z,23.00
2018-09-09T09:51:35.918Z,23.00
2018-09-09T09:54:05.635Z,23.00
2018-09-09T09:56:34.686Z,23.00
2018-09-09T09:59:03.881Z,23.00
2018-09-09T10:01:33.061Z,23.00
2018-09-09T10:04:03.045Z,23.00
2018-09-09T10:06:32.450Z,23.00
2018-09-09T10:09:02.339Z,23.00
2018-09-09T10:11:31.444Z,23.00
2018-09-09T10:14:00.481Z,23.00
2018-09-09T10:16:30.260Z,23.00
2018-09-09T10:18:59.565Z,23.00
2018-09-09T10:21:29.475Z,23.00
2018-09-09T10:23:58.617Z,23.00
2018-09-09T10:26:28.635Z,23.00
2018-09-09T10:28:59.017Z,23.00
2018-09-09T10:31:28.797Z,23.00
2018-09-09T10:33:57.873Z,23.00
2018-09-09T10:36:27.227Z,23.00
2018-09-09T10:38:56.327Z,23.00
2018-09-09T10:41:25.746Z,23.00
2018-09-09T10:43:55.551Z,23.00
2018-09-09T10:46:25.514Z,23.00
2018-09-09T10:48:54.399Z,23.00
2018-09-09T10:51:23.514Z,23.00
2018-09-09T10:53:52.599Z,23.00
2018-09-09T10:56:21.742Z,23.00
2018-09-09T10:58:50.941Z,23.00
2018-09-09T11:01:20.975Z,23.00
2018-09-09T11:03:50.885Z,23.00
2018-09-09T11:06:20.362Z,23.00
2018-09-09T11:08:49.625Z,23.00
2018-09-09T11:11:19.300Z,23.00
2018-09-09T11:13:49.663Z,23.00
2018-09-09T11:16:18.761Z,23.00
2018-09-09T11:18:48.441Z,23.10
2018-09-09T11:21:18.061Z,23.10
2018-09-09T11:23:48.797Z,23.10
2018-09-09T11:26:18.434Z,23.10
2018-09-09T11:28:47.495Z,23.10
2018-09-09T11:31:16.608Z,23.10
2018-09-09T11:33:45.839Z,23.10
2018-09-09T11:36:16.411Z,23.10
2018-09-09T11:38:45.630Z,23.20
2018-09-09T11:41:15.399Z,23.20
2018-09-09T11:43:44.868Z,23.20
2018-09-09T11:46:14.302Z,23.20
2018-09-09T11:48:43.976Z,23.20
2018-09-09T11:51:13.071Z,23.20
2018-09-09T11:53:42.125Z,23.30
2018-09-09T11:56:11.396Z,23.30
2018-09-09T11:58:41.572Z,23.30
2018-09-09T12:01:10.725Z,23.30
2018-09-09T12:03:40.302Z,23.30
2018-09-09T12:06:10.269Z,23.30
2018-09-09T12:08:39.655Z,23.30
2018-09-09T12:11:09.370Z,23.30
2018-09-09T12:13:38.458Z,23.30
2018-09-09T12:16:07.520Z,23.40
2018-09-09T12:18:37.178Z,23.40
2018-09-09T12:21:06.737Z,23.40
2018-09-09T12:23:35.845Z,23.30
2018-09-09T12:26:05.425Z,23.30
2018-09-09T12:28:34.461Z,23.40
2018-09-09T12:31:03.515Z,23.30
2018-09-09T12:33:32.815Z,23.40
2018-09-09T12:36:02.459Z,23.40
2018-09-09T12:38:31.878Z,23.40
2018-09-09T12:41:01.346Z,23.40
2018-09-09T12:43:36.942Z,23.40
2018-09-09T12:46:11.575Z,23.30
2018-09-09T12:48:45.984Z,23.40
2018-09-09T12:51:15.665Z,23.40
2018-09-09T12:53:44.758Z,23.40
2018-09-09T12:56:13.857Z,23.40
2018-09-09T12:58:42.996Z,23.40
2018-09-09T13:01:12.866Z,23.40
2018-09-09T13:03:42.439Z,23.40
2018-09-09T13:06:13.699Z,23.40
2018-09-09T13:08:46.520Z,23.60
2018-09-09T13:11:15.730Z,23.80
2018-09-09T13:13:45.279Z,24.00
2018-09-09T13:16:14.330Z,24.20
2018-09-09T13:18:44.312Z,24.40
2018-09-09T13:21:13.926Z,24.60
2018-09-09T13:23:42.986Z,24.70
2018-09-09T13:26:12.809Z,24.80
2018-09-09T13:28:42.461Z,24.80
2018-09-09T13:31:12.082Z,24.80
2018-09-09T13:33:41.873Z,24.70
2018-09-09T13:36:11.830Z,24.70
2018-09-09T13:38:40.902Z,24.70
2018-09-09T13:41:09.938Z,24.60
2018-09-09T13:43:39.443Z,24.60
2018-09-09T13:46:08.793Z,24.50
2018-09-09T13:48:38.303Z,24.50
2018-09-09T13:51:07.451Z,24.40
2018-09-09T13:53:37.056Z,24.40
2018-09-09T13:56:06.456Z,24.40
2018-09-09T13:58:35.888Z,24.40
2018-09-09T14:01:05.209Z,24.40
2018-09-09T14:03:34.861Z,24.40
2018-09-09T14:06:04.238Z,24.40
2018-09-09T14:08:33.274Z,24.30
2018-09-09T14:11:02.347Z,24.30
2018-09-09T14:13:31.566Z,24.30
2018-09-09T14:16:00.583Z,24.30
2018-09-09T14:18:30.270Z,24.30
2018-09-09T14:20:59.886Z,24.30
2018-09-09T14:23:28.964Z,24.30
2018-09-09T14:25:58.550Z,24.20
2018-09-09T14:28:28.363Z,24.30
2018-09-09T14:30:57.405Z,24.30
2018-09-09T14:33:26.453Z,24.30
2018-09-09T14:35:56.310Z,24.30
2018-09-09T14:38:25.995Z,24.30
2018-09-09T14:40:55.090Z,24.30
2018-09-09T14:43:25.157Z,24.30
2018-09-09T14:45:55.400Z,24.20
2018-09-09T14:48:25.147Z,24.20
2018-09-09T14:50:54.296Z,24.20
2018-09-09T14:53:23.417Z,24.20
2018-09-09T14:55:53.370Z,24.20
2018-09-09T14:58:23.111Z,24.20
2018-09-09T15:00:52.234Z,24.20
2018-09-09T15:03:22.813Z,24.20
2018-09-09T15:05:52.567Z,24.10
2018-09-09T15:08:21.687Z,24.10
2018-09-09T15:10:51.034Z,24.10
2018-09-09T15:13:20.155Z,24.10
2018-09-09T15:15:49.798Z,24.10
2018-09-09T15:18:19.149Z,24.10
2018-09-09T15:20:48.862Z,24.10
2018-09-09T15:23:19.531Z,24.10
2018-09-09T15:25:49.233Z,24.10
2018-09-09T15:28:18.290Z,24.10
2018-09-09T15:30:47.391Z,24.10
2018-09-09T15:33:16.730Z,24.10
2018-09-09T15:35:46.623Z,24.10
2018-09-09T15:38:15.677Z,24.00
2018-09-09T15:40:46.154Z,24.00
2018-09-09T15:43:16.045Z,24.00
2018-09-09T15:45:45.503Z,24.00
2018-09-09T15:48:14.552Z,24.00
2018-09-09T15:50:43.653Z,24.00
2018-09-09T15:53:13.503Z,24.00
2018-09-09T15:55:43.639Z,24.00
2018-09-09T15:58:12.710Z,24.00
2018-09-09T16:00:41.741Z,24.00
2018-09-09T16:03:11.418Z,24.00
2018-09-09T16:05:41.332Z,24.00
2018-09-09T16:08:11.043Z,24.00
2018-09-09T16:10:40.497Z,24.00
2018-09-09T16:13:09.804Z,24.00
2018-09-09T16:15:39.040Z,23.90
2018-09-09T16:18:08.462Z,24.00
2018-09-09T16:20:37.781Z,24.00
2018-09-09T16:23:06.856Z,23.90
2018-09-09T16:25:37.196Z,23.90
2018-09-09T16:28:06.329Z,23.90
2018-09-09T16:30:35.477Z,23.90
2018-09-09T16:33:04.565Z,23.90
2018-09-09T16:35:34.681Z,23.90
2018-09-09T16:38:05.108Z,23.90
2018-09-09T16:40:34.837Z,23.90
2018-09-09T16:43:05.194Z,23.90
2018-09-09T16:45:34.570Z,23.80
2018-09-09T16:48:03.670Z,23.80
2018-09-09T16:50:33.169Z,23.80
2018-09-09T16:53:03.090Z,23.80
2018-09-09T16:55:32.242Z,23.80
2018-09-09T16:58:01.286Z,23.80
2018-09-09T17:00:31.377Z,23.70
2018-09-09T17:03:00.822Z,23.80
2018-09-09T17:05:30.216Z,23.70
2018-09-09T17:08:00.090Z,23.70
2018-09-09T17:10:29.175Z,23.70
2018-09-09T17:12:58.670Z,23.70
2018-09-09T17:15:28.478Z,23.70
2018-09-09T17:17:57.690Z,23.70
2018-09-09T17:20:27.560Z,23.70
2018-09-09T17:22:56.637Z,23.60
2018-09-09T17:25:26.062Z,23.60
2018-09-09T17:27:55.197Z,23.60
2018-09-09T17:30:24.855Z,23.60
2018-09-09T17:32:54.238Z,23.60
2018-09-09T17:35:24.132Z,23.60
2018-09-09T17:37:53.290Z,23.60
2018-09-09T17:40:22.429Z,23.50
2018-09-09T17:42:51.786Z,23.60
2018-09-09T17:45:21.246Z,23.50
2018-09-09T17:47:50.570Z,23.50
2018-09-09T17:50:20.081Z,23.50
2018-09-09T17:52:49.194Z,23.50
2018-09-09T17:55:19.236Z,23.50
2018-09-09T17:57:48.508Z,23.50
2018-09-09T18:00:17.655Z,23.40
2018-09-09T18:02:47.319Z,23.40
2018-09-09T18:05:17.194Z,23.40
2018-09-09T18:07:46.269Z,23.40
2018-09-09T18:10:16.016Z,23.40
2018-09-09T18:12:45.783Z,23.40
2018-09-09T18:15:14.887Z,23.40
2018-09-09T18:17:44.303Z,23.40
2018-09-09T18:20:13.981Z,23.40
2018-09-09T18:22:43.122Z,23.40
2018-09-09T18:25:12.548Z,23.40
2018-09-09T18:27:41.948Z,23.40
2018-09-09T18:30:11.074Z,23.40
2018-09-09T18:32:40.242Z,23.30
2018-09-09T18:35:09.935Z,23.40
2018-09-09T18:37:39.596Z,23.40
2018-09-09T18:40:08.702Z,23.40
2018-09-09T18:42:38.763Z,23.40
2018-09-09T18:45:09.194Z,23.40
2018-09-09T18:47:38.719Z,23.40
2018-09-09T18:50:26.706Z,23.30
2018-09-09T18:52:56.428Z,23.30
2018-09-09T18:55:25.516Z,23.30
2018-09-09T18:57:54.637Z,23.30
2018-09-09T19:00:23.728Z,23.30
2018-09-09T19:02:53.739Z,23.30
2018-09-09T19:05:23.340Z,23.30
2018-09-09T19:07:53.457Z,23.30
2018-09-09T19:10:22.979Z,23.30
2018-09-09T19:12:52.472Z,23.30
2018-09-09T19:15:21.645Z,23.30
2018-09-09T19:17:50.705Z,23.30
2018-09-09T19:20:20.078Z,23.20
2018-09-09T19:22:49.242Z,23.20
2018-09-09T19:25:19.361Z,23.20
2018-09-09T19:27:48.423Z,23.20
2018-09-09T19:30:17.595Z,23.20
2018-09-09T19:32:47.053Z,23.20
2018-09-09T19:35:17.230Z,23.20
2018-09-09T19:37:46.804Z,23.20
2018-09-09T19:40:16.783Z,23.20
2018-09-09T19:42:46.484Z,23.10
2018-09-09T19:45:16.267Z,23.10
2018-09-09T19:47:45.476Z,23.10
2018-09-09T19:50:14.557Z,23.10
2018-09-09T19:52:43.922Z,23.10
2018-09-09T19:55:13.052Z,23.10
2018-09-09T19:57:42.306Z,23.10
2018-09-09T20:00:11.470Z,23.10
2018-09-09T20:02:41.327Z,23.10
2018-09-09T20:05:10.911Z,23.10
2018-09-09T20:07:40.046Z,23.10
2018-09-09T20:10:09.216Z,23.10
2018-09-09T20:12:39.954Z,23.00
2018-09-09T20:15:09.776Z,23.00
2018-09-09T20:17:38.891Z,23.00
2018-09-09T20:20:08.650Z,23.00
2018-09-09T20:22:37.787Z,23.00
2018-09-09T20:25:07.750Z,22.90
2018-09-09T20:27:37.043Z,23.00
2018-09-09T20:30:06.987Z,22.90
2018-09-09T20:32:36.059Z,22.90
2018-09-09T20:35:05.167Z,22.90
2018-09-09T20:37:35.118Z,22.90
2018-09-09T20:40:04.642Z,22.90
2018-09-09T20:42:34.614Z,22.90
2018-09-09T20:45:05.093Z,22.90
2018-09-09T20:47:34.135Z,22.90
2018-09-09T20:50:03.647Z,22.90
2018-09-09T20:52:33.361Z,22.90
2018-09-09T20:55:02.924Z,22.90
2018-09-09T20:57:32.057Z,22.90
2018-09-09T21:00:01.113Z,22.90
2018-09-09T21:02:30.747Z,22.80
2018-09-09T21:05:00.158Z,22.90
2018-09-09T21:07:29.525Z,22.80
2018-09-09T21:09:59.317Z,22.80
2018-09-09T21:12:28.843Z,22.80
2018-09-09T21:14:58.498Z,22.80
2018-09-09T21:17:28.347Z,22.80
2018-09-09T21:19:57.746Z,22.80
2018-09-09T21:22:26.805Z,22.80
2018-09-09T21:24:56.172Z,22.70
2018-09-09T21:27:26.891Z,22.70
2018-09-09T21:29:57.189Z,22.70
2018-09-09T21:32:28.947Z,22.70
2018-09-09T21:34:58.000Z,22.70
2018-09-09T21:37:28.860Z,22.60
2018-09-09T21:39:58.242Z,22.70
2018-09-09T21:42:27.985Z,22.60
2018-09-09T21:44:58.094Z,22.60
2018-09-09T21:47:27.142Z,22.60
2018-09-09T21:49:56.853Z,22.60
2018-09-09T21:52:25.903Z,22.60
2018-09-09T21:54:55.565Z,22.60
2018-09-09T21:57:24.691Z,22.50
2018-09-09T21:59:53.693Z,22.50
2018-09-09T22:02:23.622Z,22.50
2018-09-09T22:04:52.693Z,22.50
2018-09-09T22:07:22.591Z,22.50
2018-09-09T22:09:52.342Z,22.50
2018-09-09T22:12:21.579Z,22.50
2018-09-09T22:14:50.666Z,22.50
2018-09-09T22:17:19.818Z,22.50
2018-09-09T22:19:49.799Z,22.50
2018-09-09T22:22:19.153Z,22.40
2018-09-09T22:24:48.218Z,22.40
2018-09-09T22:27:17.281Z,22.40
2018-09-09T22:29:47.308Z,22.40
2018-09-09T22:32:17.381Z,22.40
2018-09-09T22:34:46.443Z,22.30
2018-09-09T22:37:17.114Z,22.30
2018-09-09T22:39:46.173Z,22.30
2018-09-09T22:42:16.076Z,22.30
2018-09-09T22:44:45.721Z,22.30
2018-09-09T22:47:15.939Z,22.30
2018-09-09T22:49:45.598Z,22.30
2018-09-09T22:52:14.648Z,22.30
2018-09-09T22:54:43.696Z,22.30
2018-09-09T22:57:13.486Z,22.30
2018-09-09T22:59:42.559Z,22.20
2018-09-09T23:02:12.076Z,22.20
2018-09-09T23:04:42.340Z,22.30
2018-09-09T23:07:12.086Z,22.30
2018-09-09T23:09:41.952Z,22.30
2018-09-09T23:12:11.044Z,22.20
2018-09-09T23:14:40.096Z,22.20
2018-09-09T23:17:09.178Z,22.20
2018-09-09T23:19:39.442Z,22.20
2018-09-09T23:22:09.070Z,22.20
2018-09-09T23:24:38.119Z,22.20
2018-09-09T23:27:07.957Z,22.20
2018-09-09T23:29:37.111Z,22.20
2018-09-09T23:32:06.626Z,22.20
2018-09-09T23:34:35.674Z,22.10
2018-09-09T23:37:05.313Z,22.10
2018-09-09T23:39:35.314Z,22.10
2018-09-09T23:42:05.254Z,22.10
2018-09-09T23:44:34.957Z,22.10
2018-09-09T23:47:04.015Z,22.10
2018-09-09T23:49:33.076Z,22.00
2018-09-09T23:52:02.131Z,22.00
2018-09-09T23:54:32.061Z,22.00
2018-09-09T23:57:01.918Z,22.00
2018-09-09T23:59:31.070Z,22.00
